Time;durP1;ratioP1;P1;durP2;ratioP2;P2;SDS_P1;SDS_P2;PMS_P1;PMS_P2;Temp;Humidity;BMP_temperature;BMP_pressure;BME280_temperature;BME280_humidity;BME280_pressure;Samples;Min_cycle;Max_cycle;Signal;HPM_P1;HPM_P2
2024/04/23 00:00:04;;;;;;;7.93;7.13;;;4.40;99.90;;;;;;5453483;26;20454;-64
2024/04/23 00:02:34;;;;;;;9.60;7.33;;;4.30;99.90;;;;;;5453784;26;20504;-64
2024/04/23 00:05:02;;;;;;;7.90;7.10;;;4.30;99.90;;;;;;5453410;26;20434;-64
2024/04/23 00:07:32;;;;;;;8.90;7.27;;;4.30;99.90;;;;;;5453519;26;20502;-64
2024/04/23 00:09:59;;;;;;;7.97;7.13;;;4.20;99.90;;;;;;5453314;26;20501;-64
2024/04/23 00:12:32;;;;;;;8.30;7.50;;;4.20;99.90;;;;;;5453309;26;20446;-64
2024/04/23 00:14:59;;;;;;;10.00;7.93;;;4.10;99.90;;;;;;5453876;26;20442;-64
2024/04/23 00:17:29;;;;;;;8.20;7.40;;;4.10;99.90;;;;;;5453701;26;20486;-64
2024/04/23 00:19:57;;;;;;;7.53;6.73;;;4.10;99.90;;;;;;5454807;26;20449;-64
2024/04/23 00:22:27;;;;;;;8.50;6.80;;;4.00;99.90;;;;;;5453763;26;20453;-64
2024/04/23 00:24:54;;;;;;;9.30;7.00;;;4.00;99.90;;;;;;5453737;26;20446;-65
2024/04/23 00:27:24;;;;;;;8.93;6.87;;;4.00;99.90;;;;;;5453666;26;20498;-64
2024/04/23 00:29:54;;;;;;;7.77;6.80;;;4.00;99.90;;;;;;5454010;26;20438;-64
2024/04/23 00:32:24;;;;;;;8.67;7.80;;;3.90;99.90;;;;;;5453095;26;20497;-64
2024/04/23 00:34:52;;;;;;;9.13;7.00;;;3.90;99.90;;;;;;5453574;26;20513;-64
2024/04/23 00:37:22;;;;;;;8.13;7.30;;;3.80;99.90;;;;;;5456768;26;20441;-64
2024/04/23 00:39:50;;;;;;;8.43;7.50;;;3.80;99.90;;;;;;5424869;26;20556;-64
2024/04/23 00:42:20;;;;;;;6.53;5.87;;;3.80;99.90;;;;;;5456563;26;20434;-64
2024/04/23 00:44:47;;;;;;;8.80;7.30;;;3.80;99.90;;;;;;5456372;26;20441;-64
2024/04/23 00:47:20;;;;;;;7.27;6.50;;;3.70;99.90;;;;;;5456470;26;20965;-64
2024/04/23 00:49:48;;;;;;;8.03;7.03;;;3.70;99.90;;;;;;5456672;26;20481;-64
2024/04/23 00:52:19;;;;;;;7.83;6.90;;;3.70;99.90;;;;;;5456443;26;20442;-64
2024/04/23 00:54:48;;;;;;;10.47;7.13;;;3.60;99.90;;;;;;5456407;26;20551;-64
2024/04/23 00:57:19;;;;;;;7.57;6.77;;;3.60;99.90;;;;;;5456440;26;20494;-64
2024/04/23 00:59:46;;;;;;;9.00;7.93;;;3.60;99.90;;;;;;5457181;26;20390;-64
2024/04/23 01:02:16;;;;;;;9.20;7.50;;;3.60;99.90;;;;;;5456343;26;20433;-63
2024/04/23 01:04:46;;;;;;;9.00;8.10;;;3.50;99.90;;;;;;5456272;26;20493;-64
2024/04/23 01:07:16;;;;;;;9.27;6.60;;;3.50;99.90;;;;;;5461737;26;20966;-64
2024/04/23 01:09:44;;;;;;;9.70;7.10;;;3.50;99.90;;;;;;5457664;26;20551;-64
2024/04/23 01:12:14;;;;;;;8.30;7.40;;;3.40;99.90;;;;;;5457412;26;20545;-64
2024/04/23 01:14:45;;;;;;;7.70;6.90;;;3.40;99.90;;;;;;5456652;26;21038;-64
2024/04/23 01:17:15;;;;;;;8.70;7.50;;;3.40;99.90;;;;;;5456843;26;20437;-64
2024/04/23 01:19:49;;;;;;;9.80;8.80;;;3.30;99.90;;;;;;5456175;26;20442;-64
2024/04/23 01:22:26;;;;;;;7.57;6.77;;;3.40;99.90;;;;;;5457389;26;20978;-64
2024/04/23 01:24:59;;;;;;;10.20;7.83;;;3.30;99.90;;;;;;5456887;26;20966;-64
2024/04/23 01:27:32;;;;;;;11.03;7.63;;;3.30;99.90;;;;;;5457514;26;20422;-64
2024/04/23 01:30:00;;;;;;;8.70;7.60;;;3.30;99.90;;;;;;5457362;26;21001;-65
2024/04/23 01:32:32;;;;;;;8.07;7.27;;;3.30;99.90;;;;;;5455934;26;20485;-64
2024/04/23 01:35:00;;;;;;;7.93;7.13;;;3.30;99.90;;;;;;5424220;26;20555;-64
2024/04/23 01:37:32;;;;;;;8.93;7.37;;;3.20;99.90;;;;;;5456027;26;20446;-64
2024/04/23 01:40:02;;;;;;;7.70;6.90;;;3.20;99.90;;;;;;5457134;26;20445;-64
2024/04/23 01:42:36;;;;;;;7.87;6.70;;;3.20;99.90;;;;;;5456049;26;20433;-64
2024/04/23 01:45:04;;;;;;;8.97;7.27;;;3.20;99.90;;;;;;5457107;26;20426;-64
2024/04/23 01:47:34;;;;;;;8.33;7.50;;;3.10;99.90;;;;;;5454948;26;20442;-64
2024/04/23 01:50:03;;;;;;;8.30;7.33;;;3.10;99.90;;;;;;5456710;26;20783;-64
2024/04/23 01:52:33;;;;;;;8.13;7.23;;;3.10;99.90;;;;;;5455787;26;20849;-65
2024/04/23 01:55:01;;;;;;;8.70;7.53;;;3.10;99.90;;;;;;5460299;26;20446;-65
2024/04/23 01:57:34;;;;;;;9.30;7.40;;;3.10;99.90;;;;;;5426219;26;20888;-64
2024/04/23 02:00:04;;;;;;;9.73;8.30;;;3.10;99.90;;;;;;5457019;26;20861;-65
2024/04/23 02:02:34;;;;;;;9.37;7.87;;;3.00;99.90;;;;;;5457348;26;20552;-64
2024/04/23 02:05:02;;;;;;;10.73;9.17;;;3.00;99.90;;;;;;5457208;26;20430;-64
2024/04/23 02:07:32;;;;;;;9.37;7.33;;;3.00;99.90;;;;;;5456365;26;20501;-64
2024/04/23 02:10:13;;;;;;;9.90;8.50;;;3.00;99.90;;;;;;5347833;26;20453;-64
2024/04/23 02:12:46;;;;;;;7.70;6.67;;;2.90;99.90;;;;;;5347916;26;20502;-64
2024/04/23 02:15:13;;;;;;;8.13;7.33;;;2.90;99.90;;;;;;5348174;26;20965;-64
2024/04/23 02:17:43;;;;;;;7.43;6.67;;;2.90;99.90;;;;;;5346400;26;20475;-64
2024/04/23 02:20:11;;;;;;;8.33;7.53;;;2.80;99.90;;;;;;5346536;26;20510;-64
2024/04/23 02:22:41;;;;;;;7.97;7.07;;;2.80;99.90;;;;;;5346468;26;20533;-64
2024/04/23 02:25:08;;;;;;;7.80;7.03;;;2.80;99.90;;;;;;5346734;26;20501;-64
2024/04/23 02:27:38;;;;;;;8.97;8.07;;;2.80;99.90;;;;;;5346349;26;20501;-64
2024/04/23 02:30:09;;;;;;;8.60;7.60;;;2.70;99.90;;;;;;5346207;26;20473;-64
2024/04/23 02:32:39;;;;;;;7.83;7.03;;;2.70;99.90;;;;;;5346761;26;20445;-64
2024/04/23 02:35:07;;;;;;;9.80;8.30;;;2.70;99.90;;;;;;5346038;26;20469;-64
2024/04/23 02:37:37;;;;;;;8.07;7.23;;;2.70;99.90;;;;;;5346192;26;20561;-64
2024/04/23 02:40:05;;;;;;;10.40;7.63;;;2.60;99.90;;;;;;5351197;26;20500;-64
2024/04/23 02:42:36;;;;;;;8.70;6.90;;;2.60;99.90;;;;;;5455597;26;20440;-64
2024/04/23 02:45:04;;;;;;;6.77;6.13;;;2.60;99.90;;;;;;5455468;26;20490;-64
2024/04/23 02:47:36;;;;;;;7.33;6.63;;;2.60;99.90;;;;;;5455171;26;20977;-64
2024/04/23 02:50:05;;;;;;;8.20;6.87;;;2.50;99.90;;;;;;5455999;26;20490;-64
2024/04/23 02:52:34;;;;;;;9.07;7.30;;;2.50;99.90;;;;;;5455381;26;20437;-64
2024/04/23 02:55:05;;;;;;;8.63;7.17;;;2.50;99.90;;;;;;5423593;26;20674;-64
2024/04/23 02:57:36;;;;;;;9.13;7.47;;;2.50;99.90;;;;;;5455364;26;20892;-63
2024/04/23 03:00:04;;;;;;;7.23;6.53;;;2.50;99.90;;;;;;5423811;26;21035;-64
2024/04/23 03:02:37;;;;;;;8.07;7.20;;;2.40;99.90;;;;;;5455531;26;20489;-64
2024/04/23 03:05:05;;;;;;;8.30;6.53;;;2.40;99.90;;;;;;5456996;26;20781;-64
2024/04/23 03:07:35;;;;;;;9.77;8.20;;;2.40;99.90;;;;;;5455532;26;21037;-64
2024/04/23 03:10:03;;;;;;;8.40;7.03;;;2.40;99.90;;;;;;5455122;26;20951;-64
2024/04/23 03:12:52;;;;;;;8.80;7.90;;;2.40;99.90;;;;;;5458275;26;20413;-64
2024/04/23 03:15:19;;;;;;;8.40;6.83;;;2.30;99.90;;;;;;5455320;26;20441;-64
2024/04/23 03:17:52;;;;;;;14.63;13.00;;;2.30;99.90;;;;;;5423446;26;20445;-64
2024/04/23 03:20:19;;;;;;;22.77;18.10;;;2.30;99.90;;;;;;5456694;26;20497;-64
2024/04/23 03:22:49;;;;;;;20.53;15.70;;;2.30;99.90;;;;;;5455480;26;20436;-64
2024/04/23 03:25:17;;;;;;;14.43;12.23;;;2.30;99.90;;;;;;5424239;26;20520;-64
2024/04/23 03:27:47;;;;;;;25.13;19.27;;;2.20;99.90;;;;;;5455621;26;20493;-63
2024/04/23 03:30:14;;;;;;;19.37;14.57;;;2.20;99.90;;;;;;5455323;26;20448;-63
2024/04/23 03:32:44;;;;;;;14.00;11.37;;;2.20;99.90;;;;;;5423601;26;20497;-63
2024/04/23 03:35:14;;;;;;;14.33;10.90;;;2.20;99.90;;;;;;5455515;26;20508;-63
2024/04/23 03:37:44;;;;;;;14.17;9.77;;;2.20;99.90;;;;;;5455219;26;20489;-63
2024/04/23 03:40:14;;;;;;;10.83;8.60;;;2.10;99.90;;;;;;5455792;26;20448;-63
2024/04/23 03:42:44;;;;;;;10.00;8.10;;;2.20;99.90;;;;;;5455191;26;20552;-63
2024/04/23 03:45:14;;;;;;;10.00;8.10;;;2.10;99.90;;;;;;5423203;26;20449;-63
2024/04/23 03:47:44;;;;;;;9.70;8.70;;;2.10;99.90;;;;;;5455627;26;20493;-63
2024/04/23 03:50:14;;;;;;;10.60;9.50;;;2.10;99.90;;;;;;5455253;26;20503;-63
2024/04/23 03:52:44;;;;;;;8.73;7.60;;;2.10;99.90;;;;;;5455042;26;20557;-63
2024/04/23 03:55:12;;;;;;;8.43;7.47;;;2.10;99.90;;;;;;5455364;26;20453;-63
2024/04/23 03:57:42;;;;;;;9.10;7.60;;;2.00;99.90;;;;;;5455673;26;20437;-63
2024/04/23 04:00:10;;;;;;;8.10;7.30;;;2.00;99.90;;;;;;5454924;26;20494;-63
2024/04/23 04:08:14;;;;;;;9.00;8.07;;;2.00;99.90;;;;;;5455450;26;20490;-63
2024/04/23 04:10:44;;;;;;;12.47;8.90;;;2.00;99.90;;;;;;5458977;26;20503;-63
2024/04/23 04:13:14;;;;;;;12.63;9.70;;;2.00;99.90;;;;;;5430559;26;20491;-63
2024/04/23 04:15:52;;;;;;;13.60;10.13;;;1.90;99.90;;;;;;5463353;26;20514;-63
2024/04/23 04:18:19;;;;;;;14.23;9.13;;;1.90;99.90;;;;;;5462289;26;20439;-63
2024/04/23 04:20:53;;;;;;;11.10;9.30;;;1.90;99.90;;;;;;5462714;26;20461;-63
2024/04/23 04:23:21;;;;;;;11.87;10.23;;;1.90;99.90;;;;;;5464052;26;20398;-63
2024/04/23 04:25:51;;;;;;;14.50;11.63;;;1.90;99.90;;;;;;5462484;26;20436;-63
2024/04/23 04:28:18;;;;;;;24.27;15.20;;;1.90;99.90;;;;;;5464180;26;20412;-63
2024/04/23 04:30:48;;;;;;;15.10;12.53;;;1.90;99.90;;;;;;5462238;26;21004;-63
2024/04/23 04:33:16;;;;;;;15.10;10.87;;;1.90;99.90;;;;;;5462588;26;20437;-63
2024/04/23 04:35:46;;;;;;;13.20;11.17;;;1.90;99.90;;;;;;5462289;26;20517;-63
2024/04/23 04:38:16;;;;;;;14.10;11.03;;;1.90;99.90;;;;;;5462224;26;20445;-63
2024/04/23 04:40:46;;;;;;;16.27;11.60;;;1.90;99.90;;;;;;5462154;26;20816;-63
2024/04/23 04:43:13;;;;;;;21.63;13.60;;;1.80;99.90;;;;;;5463620;26;20394;-63
2024/04/23 04:45:44;;;;;;;25.47;16.80;;;1.80;99.90;;;;;;5461803;26;20440;-63
2024/04/23 04:48:12;;;;;;;27.63;16.70;;;1.80;99.90;;;;;;5462658;26;20554;-63
2024/04/23 04:50:42;;;;;;;31.07;18.50;;;1.80;99.90;;;;;;5461832;26;20991;-63
2024/04/23 04:53:09;;;;;;;15.93;12.33;;;1.80;99.90;;;;;;5462057;26;20966;-63
2024/04/23 04:55:42;;;;;;;16.67;11.70;;;1.80;99.90;;;;;;5461768;26;20788;-63
2024/04/23 04:58:09;;;;;;;12.60;10.17;;;1.80;99.90;;;;;;5462262;26;20517;-63
2024/04/23 05:00:39;;;;;;;13.80;10.27;;;1.80;99.90;;;;;;5466365;26;20516;-64
2024/04/23 05:03:10;;;;;;;12.83;11.07;;;1.80;99.90;;;;;;5463783;26;20742;-64
2024/04/23 05:05:40;;;;;;;12.73;10.23;;;1.80;99.90;;;;;;5430767;26;20448;-64
2024/04/23 05:08:08;;;;;;;13.90;10.60;;;1.80;99.90;;;;;;5462484;26;20980;-63
2024/04/23 05:10:38;;;;;;;17.57;13.07;;;1.80;99.90;;;;;;5462031;26;20462;-64
2024/04/23 05:13:09;;;;;;;15.57;13.00;;;1.80;99.90;;;;;;5430168;26;20459;-63
2024/04/23 05:15:39;;;;;;;14.70;12.70;;;1.80;99.90;;;;;;5462722;26;20846;-63
2024/04/23 05:18:06;;;;;;;13.83;11.73;;;1.80;99.90;;;;;;5462007;26;20439;-63
2024/04/23 05:20:36;;;;;;;12.97;11.23;;;1.80;99.90;;;;;;5461576;26;20459;-64
2024/04/23 05:23:04;;;;;;;13.33;11.10;;;1.90;99.90;;;;;;5424680;26;20453;-64
2024/04/23 05:25:34;;;;;;;14.30;11.57;;;1.80;99.90;;;;;;5426430;26;20894;-64
2024/04/23 05:28:01;;;;;;;15.80;11.43;;;1.90;99.90;;;;;;5457575;26;20441;-64
2024/04/23 05:33:20;;;;;;;12.83;11.53;;;1.90;99.90;;;;;;5458684;26;20397;-63
2024/04/23 05:35:50;;;;;;;14.73;11.63;;;1.90;99.90;;;;;;5457948;26;20452;-63
2024/04/23 05:38:20;;;;;;;14.53;11.90;;;1.90;99.90;;;;;;5457346;26;20804;-63
2024/04/23 05:40:51;;;;;;;14.50;12.00;;;1.90;99.90;;;;;;5457216;26;20457;-63
2024/04/23 05:43:21;;;;;;;14.40;12.90;;;2.00;99.90;;;;;;5458959;26;20422;-63
2024/04/23 05:45:53;;;;;;;15.23;13.70;;;2.00;99.90;;;;;;5457304;26;20551;-63
2024/04/23 05:49:01;;;;;;;15.07;12.83;;;2.00;99.90;;;;;;5457234;26;20441;-63
2024/04/23 05:52:27;;;;;;;13.87;12.43;;;2.10;99.90;;;;;;5458107;26;20494;-63
2024/04/23 05:55:34;;;;;;;13.90;12.40;;;2.10;99.90;;;;;;5457789;26;20540;-63
2024/04/23 05:58:02;;;;;;;17.53;13.20;;;2.20;99.90;;;;;;5458040;26;20398;-63
2024/04/23 06:00:32;;;;;;;13.33;11.63;;;2.30;99.90;;;;;;5456809;26;20445;-63
2024/04/23 06:03:03;;;;;;;14.23;12.40;;;2.40;99.90;;;;;;5458352;26;20398;-63
2024/04/23 06:05:33;;;;;;;13.50;12.10;;;2.60;99.90;;;;;;5457276;26;20544;-63
2024/04/23 06:08:00;;;;;;;15.23;13.50;;;2.80;99.90;;;;;;5458520;26;20723;-63
2024/04/23 06:10:30;;;;;;;13.17;11.87;;;2.90;99.90;;;;;;5456229;26;21077;-64
2024/04/23 06:12:58;;;;;;;13.23;11.80;;;3.00;99.90;;;;;;5457764;26;20398;-63
2024/04/23 06:15:28;;;;;;;13.27;11.00;;;3.00;99.90;;;;;;5456338;26;20856;-63
2024/04/23 06:17:55;;;;;;;13.50;12.10;;;3.10;99.90;;;;;;5456436;26;20438;-63
2024/04/23 06:20:28;;;;;;;13.17;11.87;;;3.20;99.90;;;;;;5455863;26;20454;-64
2024/04/23 06:22:56;;;;;;;13.27;11.97;;;3.50;99.90;;;;;;5456581;26;21014;-64
2024/04/23 06:25:26;;;;;;;12.70;11.50;;;3.70;99.90;;;;;;5455824;26;20536;-63
2024/04/23 06:27:53;;;;;;;13.30;11.97;;;4.00;99.90;;;;;;5455404;26;20447;-64
2024/04/23 06:30:23;;;;;;;11.23;10.13;;;4.20;99.90;;;;;;5455320;26;20450;-64
2024/04/23 06:32:51;;;;;;;11.50;10.47;;;4.50;99.90;;;;;;5454639;26;20490;-64
2024/04/23 06:35:21;;;;;;;9.43;8.53;;;4.70;99.90;;;;;;5455170;26;20484;-64
2024/04/23 06:37:51;;;;;;;9.67;8.87;;;5.00;99.90;;;;;;5423291;26;20453;-64
2024/04/23 06:40:21;;;;;;;9.50;8.60;;;5.20;99.90;;;;;;5455240;26;20450;-65
2024/04/23 06:42:48;;;;;;;9.30;8.50;;;5.40;99.90;;;;;;5454899;26;20435;-64
2024/04/23 06:45:18;;;;;;;10.13;9.20;;;5.60;99.90;;;;;;5454986;26;20434;-65
2024/04/23 06:47:47;;;;;;;9.03;8.13;;;5.90;99.90;;;;;;5454740;26;20485;-65
2024/04/23 06:50:17;;;;;;;9.30;8.40;;;6.10;99.90;;;;;;5454771;26;20512;-65
2024/04/23 06:52:45;;;;;;;8.93;8.13;;;6.30;99.90;;;;;;5454742;26;20435;-65
2024/04/23 06:55:18;;;;;;;9.30;8.40;;;6.40;99.90;;;;;;5454702;26;20571;-65
2024/04/23 06:57:46;;;;;;;7.90;7.20;;;6.60;99.90;;;;;;5455734;26;20457;-65
2024/04/23 07:00:16;;;;;;;7.80;7.10;;;6.80;99.90;;;;;;5454478;26;21068;-65
2024/04/23 07:02:43;;;;;;;7.10;6.10;;;7.00;99.90;;;;;;5456011;26;20487;-64
2024/04/23 07:05:13;;;;;;;6.87;6.20;;;7.10;99.90;;;;;;5454465;26;20477;-65
2024/04/23 07:07:41;;;;;;;6.80;6.20;;;7.30;99.90;;;;;;5454294;26;20492;-65
2024/04/23 07:10:11;;;;;;;6.80;6.20;;;7.40;99.90;;;;;;5454199;26;20554;-65
2024/04/23 07:12:41;;;;;;;6.77;6.10;;;7.40;99.90;;;;;;5455793;26;20438;-65
2024/04/23 07:15:11;;;;;;;5.83;5.30;;;7.50;99.90;;;;;;5454280;26;20438;-64
2024/04/23 07:17:38;;;;;;;6.00;5.43;;;7.60;99.90;;;;;;5422560;26;20576;-65
2024/04/23 07:20:10;;;;;;;7.33;6.10;;;7.70;99.90;;;;;;5454225;26;20453;-64
2024/04/23 07:22:37;;;;;;;6.30;5.80;;;7.90;99.90;;;;;;5454257;26;20558;-64
2024/04/23 07:25:07;;;;;;;6.13;5.63;;;8.00;99.90;;;;;;5454192;26;20552;-65
2024/04/23 07:27:35;;;;;;;6.00;5.50;;;8.10;99.90;;;;;;5454057;26;20476;-65
2024/04/23 07:30:08;;;;;;;7.07;6.37;;;8.20;99.90;;;;;;5454092;26;20453;-64
2024/04/23 07:32:36;;;;;;;6.10;5.60;;;8.40;99.90;;;;;;5454757;26;20542;-64
2024/04/23 07:35:06;;;;;;;5.87;5.30;;;8.40;99.90;;;;;;5454038;26;20544;-64
2024/04/23 07:37:34;;;;;;;6.83;5.93;;;8.50;99.90;;;;;;5455558;26;20926;-65
2024/04/23 07:40:04;;;;;;;5.63;5.13;;;8.50;99.90;;;;;;5453987;26;20552;-64
2024/04/23 07:42:31;;;;;;;6.53;5.93;;;8.60;99.90;;;;;;5454183;26;20437;-64
2024/04/23 07:45:01;;;;;;;6.07;5.47;;;8.70;99.90;;;;;;5452549;26;20974;-65
2024/04/23 07:47:32;;;;;;;8.93;5.67;;;8.70;99.70;;;;;;5453734;26;20441;-65
2024/04/23 07:50:03;;;;;;;5.10;4.60;;;8.90;99.70;;;;;;5454713;26;21038;-65
2024/04/23 07:52:33;;;;;;;5.10;4.60;;;8.90;99.60;;;;;;5453829;26;20898;-65
2024/04/23 07:55:00;;;;;;;4.93;4.50;;;9.00;99.60;;;;;;5454250;26;20841;-65
2024/04/23 07:57:30;;;;;;;4.90;4.37;;;9.20;99.40;;;;;;5453835;26;20490;-65
2024/04/23 07:59:57;;;;;;;5.80;5.03;;;9.20;98.90;;;;;;5453756;26;21095;-65
2024/04/23 08:02:28;;;;;;;5.37;4.87;;;9.30;98.50;;;;;;5453950;26;20433;-64
2024/04/23 08:04:58;;;;;;;5.67;5.07;;;9.30;98.20;;;;;;5453655;26;20441;-65
2024/04/23 08:07:30;;;;;;;6.43;5.47;;;9.30;98.00;;;;;;5453744;26;20442;-65
2024/04/23 08:09:58;;;;;;;5.37;4.87;;;9.40;97.70;;;;;;5454958;26;20449;-65
2024/04/23 08:12:29;;;;;;;5.60;5.07;;;9.40;97.60;;;;;;5454232;26;20465;-64
2024/04/23 08:14:56;;;;;;;5.97;4.80;;;9.40;97.50;;;;;;5453706;26;20438;-65
2024/04/23 08:17:26;;;;;;;6.07;5.47;;;9.40;97.40;;;;;;5453695;26;20494;-64
2024/04/23 08:19:53;;;;;;;4.83;4.33;;;9.40;97.30;;;;;;5454806;26;20804;-65
2024/04/23 08:22:27;;;;;;;5.23;4.77;;;9.50;97.40;;;;;;5453272;26;20505;-65
2024/04/23 08:24:55;;;;;;;6.80;4.90;;;9.50;97.60;;;;;;5454786;26;20426;-65
2024/04/23 08:27:25;;;;;;;5.40;4.90;;;9.50;97.50;;;;;;5453155;26;20445;-64
2024/04/23 08:29:52;;;;;;;4.90;4.40;;;9.60;97.20;;;;;;5453077;26;20526;-65
2024/04/23 08:32:22;;;;;;;5.77;4.97;;;9.50;96.90;;;;;;5454470;26;20497;-65
2024/04/23 08:34:49;;;;;;;5.03;4.63;;;9.50;96.90;;;;;;5455097;26;20798;-64
2024/04/23 08:37:20;;;;;;;4.53;4.13;;;9.50;97.00;;;;;;5422164;26;20457;-65
2024/04/23 08:39:50;;;;;;;5.60;4.77;;;9.50;96.80;;;;;;5453902;26;20486;-65
2024/04/23 08:42:24;;;;;;;5.90;5.10;;;9.40;96.50;;;;;;5453521;26;20794;-65
2024/04/23 08:44:56;;;;;;;5.30;4.80;;;9.30;96.20;;;;;;5454573;26;20426;-64
2024/04/23 08:47:27;;;;;;;5.47;4.97;;;9.20;95.80;;;;;;5452981;26;20555;-65
2024/04/23 08:49:55;;;;;;;6.00;5.50;;;9.10;95.80;;;;;;5454262;26;20521;-65
2024/04/23 08:52:25;;;;;;;6.73;4.90;;;9.00;95.70;;;;;;5456942;26;20437;-65
2024/04/23 08:54:55;;;;;;;5.93;5.33;;;9.00;95.80;;;;;;5454852;26;20441;-65
2024/04/23 08:57:25;;;;;;;5.70;5.10;;;8.90;95.80;;;;;;5456620;26;20497;-64
2024/04/23 08:59:53;;;;;;;5.50;4.97;;;8.90;95.80;;;;;;5456787;26;20482;-64
2024/04/23 09:02:28;;;;;;;5.43;5.00;;;9.00;95.90;;;;;;5456736;26;20551;-64
2024/04/23 09:04:57;;;;;;;6.03;5.23;;;9.10;95.70;;;;;;5456908;26;20485;-64
2024/04/23 09:07:28;;;;;;;5.13;4.70;;;9.20;95.70;;;;;;5456561;26;20559;-64
2024/04/23 09:10:03;;;;;;;5.40;4.90;;;9.30;95.60;;;;;;5457369;26;20445;-65
2024/04/23 09:12:33;;;;;;;5.70;4.70;;;9.30;95.50;;;;;;5457211;26;20437;-64
2024/04/23 09:15:01;;;;;;;4.90;4.50;;;9.40;95.60;;;;;;5457212;26;20394;-65
2024/04/23 09:17:35;;;;;;;4.87;4.43;;;9.50;95.60;;;;;;5456231;26;20494;-64
2024/04/23 09:20:04;;;;;;;5.23;4.73;;;9.50;95.40;;;;;;5457005;26;20441;-64
2024/04/23 09:22:34;;;;;;;4.93;4.30;;;9.50;95.30;;;;;;5456108;26;20449;-65
2024/04/23 09:25:05;;;;;;;5.40;4.80;;;9.50;95.50;;;;;;5456169;26;20449;-64
2024/04/23 09:27:39;;;;;;;5.93;5.13;;;9.40;95.20;;;;;;5457233;26;20399;-65
2024/04/23 09:30:08;;;;;;;4.37;3.97;;;9.40;95.20;;;;;;5456774;26;20493;-65
2024/04/23 09:32:38;;;;;;;5.63;5.10;;;9.40;95.00;;;;;;5456035;26;20485;-65
2024/04/23 09:35:14;;;;;;;5.50;4.40;;;9.30;94.80;;;;;;5457857;26;20405;-65
2024/04/23 09:37:51;;;;;;;5.17;4.60;;;9.30;94.80;;;;;;5457092;26;20402;-65
2024/04/23 09:40:21;;;;;;;4.97;4.57;;;9.20;95.00;;;;;;5457005;26;20452;-65
2024/04/23 09:42:56;;;;;;;5.53;5.03;;;9.40;95.30;;;;;;5457161;26;20391;-65
2024/04/23 09:45:26;;;;;;;5.03;4.60;;;9.50;95.30;;;;;;5456850;26;20449;-65
2024/04/23 09:47:56;;;;;;;4.90;4.40;;;9.70;95.40;;;;;;5455653;26;20453;-65
2024/04/23 09:50:28;;;;;;;5.50;5.00;;;9.80;95.10;;;;;;5455716;26;20981;-65
2024/04/23 09:53:05;;;;;;;4.60;3.50;;;9.90;94.60;;;;;;5456904;26;20394;-65
2024/04/23 09:55:35;;;;;;;5.20;4.70;;;9.90;94.70;;;;;;5455930;26;20433;-65
2024/04/23 09:58:05;;;;;;;5.80;5.20;;;9.90;94.80;;;;;;5455631;26;20877;-65
2024/04/23 10:00:34;;;;;;;5.17;4.57;;;10.00;94.30;;;;;;5455510;26;20490;-65
2024/04/23 10:03:13;;;;;;;5.20;4.70;;;10.20;94.30;;;;;;5455496;26;20981;-65
2024/04/23 10:05:46;;;;;;;4.90;4.50;;;10.30;94.00;;;;;;5456693;26;20401;-65
2024/04/23 10:08:22;;;;;;;5.93;5.33;;;10.30;93.90;;;;;;5456242;26;20406;-65
2024/04/23 10:10:54;;;;;;;5.33;4.90;;;10.30;93.80;;;;;;5456172;26;21123;-65
2024/04/23 10:13:32;;;;;;;6.00;5.40;;;10.30;93.70;;;;;;5456432;26;20434;-65
2024/04/23 10:16:11;;;;;;;5.00;4.60;;;10.40;93.70;;;;;;5456595;26;20402;-65
2024/04/23 10:18:46;;;;;;;4.60;4.20;;;10.50;93.70;;;;;;5456479;26;20465;-65
2024/04/23 10:21:19;;;;;;;4.90;4.50;;;10.50;93.60;;;;;;5455961;26;20509;-65
2024/04/23 10:23:51;;;;;;;7.93;5.97;;;10.50;93.50;;;;;;5456546;26;20427;-65
2024/04/23 10:26:22;;;;;;;5.70;5.20;;;10.60;93.60;;;;;;5455176;26;20437;-65
2024/04/23 10:28:55;;;;;;;4.97;4.57;;;10.60;93.40;;;;;;5455685;26;20433;-65
2024/04/23 10:31:24;;;;;;;4.67;4.17;;;10.60;93.20;;;;;;5456377;26;20441;-65
2024/04/23 10:33:56;;;;;;;4.90;4.50;;;10.60;93.10;;;;;;5455053;26;20540;-65
2024/04/23 10:36:24;;;;;;;5.47;4.97;;;10.60;93.00;;;;;;5456211;26;20907;-65
2024/04/23 10:38:56;;;;;;;5.30;4.33;;;10.60;93.00;;;;;;5455016;26;20490;-65
2024/04/23 10:41:26;;;;;;;5.30;4.40;;;10.60;93.10;;;;;;5456163;26;20523;-65
2024/04/23 10:43:57;;;;;;;5.10;4.70;;;10.60;92.80;;;;;;5456357;26;20439;-65
2024/04/23 10:46:24;;;;;;;5.57;5.00;;;10.60;92.50;;;;;;5456126;26;20486;-65
2024/04/23 10:48:56;;;;;;;4.80;4.40;;;10.60;92.20;;;;;;5454858;26;20433;-65
2024/04/23 10:51:25;;;;;;;4.80;4.40;;;10.60;92.10;;;;;;5456009;26;20441;-65
2024/04/23 10:53:55;;;;;;;4.63;4.23;;;10.50;92.00;;;;;;5454900;26;20554;-65
2024/04/23 10:56:26;;;;;;;4.80;4.40;;;10.50;92.10;;;;;;5456232;26;20390;-65
2024/04/23 10:59:03;;;;;;;6.27;5.37;;;10.50;92.30;;;;;;5456459;26;20727;-65
2024/04/23 11:01:31;;;;;;;5.17;4.77;;;10.50;92.00;;;;;;5456171;26;20989;-65
2024/04/23 11:04:05;;;;;;;4.70;4.30;;;10.40;91.80;;;;;;5422756;26;20873;-65
2024/04/23 11:06:36;;;;;;;5.10;4.40;;;10.40;91.80;;;;;;5456033;26;20434;-65
2024/04/23 11:09:17;;;;;;;5.10;4.50;;;10.40;91.80;;;;;;5455723;26;20461;-65
2024/04/23 11:11:55;;;;;;;5.70;5.20;;;10.40;91.70;;;;;;5455003;26;20548;-65
2024/04/23 11:14:35;;;;;;;6.07;5.57;;;10.40;91.60;;;;;;5456595;26;20394;-65
2024/04/23 11:17:04;;;;;;;5.27;4.83;;;10.40;91.40;;;;;;5456399;26;20390;-65
2024/04/23 11:19:41;;;;;;;5.17;4.73;;;10.50;91.50;;;;;;5454403;26;20555;-65
2024/04/23 11:22:10;;;;;;;5.67;5.20;;;10.60;91.60;;;;;;5454660;26;20437;-65
2024/04/23 11:24:45;;;;;;;6.23;5.67;;;10.60;91.60;;;;;;5454394;26;20494;-65
2024/04/23 11:27:16;;;;;;;5.40;5.00;;;10.70;91.50;;;;;;5455847;26;20468;-65
2024/04/23 11:29:47;;;;;;;5.40;4.90;;;10.70;91.50;;;;;;5454114;26;20445;-65
2024/04/23 11:32:16;;;;;;;5.40;4.90;;;10.70;91.30;;;;;;5456073;26;20406;-65
2024/04/23 11:34:48;;;;;;;5.60;5.10;;;10.70;91.20;;;;;;5454193;26;20442;-65
2024/04/23 11:37:22;;;;;;;6.07;5.57;;;10.60;91.20;;;;;;5454180;26;20497;-65
2024/04/23 11:39:57;;;;;;;7.00;5.37;;;10.60;91.10;;;;;;5455857;26;20830;-65
2024/04/23 11:42:28;;;;;;;5.27;4.87;;;10.70;91.10;;;;;;5455682;26;20398;-65
2024/04/23 11:44:59;;;;;;;5.63;5.17;;;10.70;91.00;;;;;;5455489;26;20417;-65
2024/04/23 11:47:28;;;;;;;5.60;4.83;;;10.70;90.70;;;;;;5455466;26;20430;-65
2024/04/23 11:49:58;;;;;;;6.20;5.60;;;10.60;90.50;;;;;;5453959;26;20465;-65
2024/04/23 11:52:28;;;;;;;6.50;5.90;;;10.60;90.60;;;;;;5456152;26;20410;-65
2024/04/23 11:54:58;;;;;;;6.10;5.60;;;10.60;90.50;;;;;;5422162;26;20819;-65
2024/04/23 11:57:29;;;;;;;6.13;5.63;;;10.50;90.50;;;;;;5454806;26;20782;-65
2024/04/23 11:59:58;;;;;;;6.17;5.67;;;10.50;90.60;;;;;;5453548;26;20449;-65
2024/04/23 12:02:26;;;;;;;6.33;5.73;;;10.50;90.40;;;;;;5454064;26;20845;-65
2024/04/23 12:04:58;;;;;;;6.10;5.30;;;10.50;90.40;;;;;;5453774;26;20551;-65
2024/04/23 12:07:26;;;;;;;6.90;6.27;;;10.50;90.20;;;;;;5422117;26;20444;-64
2024/04/23 12:09:57;;;;;;;6.20;5.70;;;10.50;90.10;;;;;;5453392;26;21045;-65
2024/04/23 12:12:24;;;;;;;6.17;5.67;;;10.40;90.10;;;;;;5454339;26;20560;-65
2024/04/23 12:14:57;;;;;;;7.47;6.77;;;10.40;90.20;;;;;;5453722;26;20438;-65
2024/04/23 12:17:24;;;;;;;7.20;6.60;;;10.40;90.20;;;;;;5455149;26;20394;-65
2024/04/23 12:19:56;;;;;;;6.67;6.10;;;10.50;90.40;;;;;;5453550;26;20973;-65
2024/04/23 12:22:23;;;;;;;6.80;6.30;;;10.60;90.50;;;;;;5453552;26;20859;-64
2024/04/23 12:24:53;;;;;;;6.57;5.97;;;10.70;90.60;;;;;;5453259;26;20433;-65
2024/04/23 12:27:21;;;;;;;6.13;5.63;;;10.80;90.70;;;;;;5453163;26;20480;-66
2024/04/23 12:29:52;;;;;;;6.70;6.10;;;10.90;90.70;;;;;;5452647;26;20547;-65
2024/04/23 12:32:29;;;;;;;6.70;6.10;;;10.90;90.50;;;;;;5457154;26;20423;-65
2024/04/23 12:35:01;;;;;;;6.00;5.60;;;11.10;90.60;;;;;;5457559;26;20398;-65
2024/04/23 12:37:29;;;;;;;5.57;5.07;;;11.10;90.30;;;;;;5424775;26;20802;-65
2024/04/23 12:40:03;;;;;;;5.70;5.20;;;11.10;90.20;;;;;;5456681;26;21025;-65
2024/04/23 12:42:31;;;;;;;5.97;5.47;;;11.10;90.20;;;;;;5462308;26;20757;-65
2024/04/23 12:45:04;;;;;;;7.33;6.47;;;11.10;90.10;;;;;;5459624;26;20443;-65
2024/04/23 12:47:34;;;;;;;7.07;6.47;;;11.10;90.10;;;;;;5457239;26;20437;-65
2024/04/23 12:50:04;;;;;;;8.37;6.00;;;11.00;89.80;;;;;;5457680;26;20491;-65
2024/04/23 12:52:34;;;;;;;6.07;5.60;;;11.00;89.80;;;;;;5458209;26;20395;-65
2024/04/23 12:55:04;;;;;;;6.40;5.80;;;10.90;89.70;;;;;;5457646;26;20808;-65
2024/04/23 12:57:34;;;;;;;6.43;5.83;;;10.90;89.60;;;;;;5456453;26;20489;-66
2024/04/23 13:00:01;;;;;;;5.90;5.40;;;10.90;89.80;;;;;;5456257;26;20449;-65
2024/04/23 13:02:31;;;;;;;7.07;5.90;;;10.80;89.70;;;;;;5456181;26;20839;-65
2024/04/23 13:05:04;;;;;;;7.10;6.40;;;10.80;89.80;;;;;;5456479;26;20698;-65
2024/04/23 13:07:34;;;;;;;6.00;5.50;;;10.80;89.90;;;;;;5456194;26;20528;-65
2024/04/23 13:10:01;;;;;;;7.27;6.57;;;10.90;90.00;;;;;;5455939;26;20446;-65
2024/04/23 13:12:31;;;;;;;6.87;5.70;;;11.00;90.20;;;;;;5456110;26;20449;-65
2024/04/23 13:14:59;;;;;;;7.07;6.47;;;11.10;90.00;;;;;;5456057;26;20452;-65